createdAt,value
2018-07-07T00:01:54.153Z,59.43
2018-07-07T00:04:20.781Z,60.05
2018-07-07T00:06:47.457Z,59.11
2018-07-07T00:09:14.380Z,58.50
2018-07-07T00:11:42.076Z,59.30
2018-07-07T00:14:08.713Z,57.88
2018-07-07T00:16:36.201Z,58.17
2018-07-07T00:19:04.568Z,58.38
2018-07-07T00:21:32.109Z,58.78
2018-07-07T00:24:01.024Z,59.35
2018-07-07T00:26:30.025Z,58.38
2018-07-07T00:28:58.477Z,58.63
2018-07-07T00:31:25.949Z,58.81
2018-07-07T00:33:53.601Z,58.15
2018-07-07T00:36:21.149Z,58.31
2018-07-07T00:38:47.781Z,58.22
2018-07-07T00:41:14.465Z,57.55
2018-07-07T00:43:41.117Z,58.39
2018-07-07T00:46:08.589Z,59.06
2018-07-07T00:48:36.052Z,58.95
2018-07-07T00:51:03.841Z,57.66
2018-07-07T00:53:30.473Z,58.76
2018-07-07T00:55:58.462Z,58.45
2018-07-07T00:58:25.924Z,58.80
2018-07-07T01:00:53.449Z,57.68
2018-07-07T01:03:20.948Z,57.88
2018-07-07T01:05:48.832Z,58.23
2018-07-07T01:08:16.125Z,57.43
2018-07-07T01:10:44.029Z,56.57
2018-07-07T01:13:10.676Z,58.18
2018-07-07T01:15:37.325Z,57.63
2018-07-07T01:18:05.128Z,57.81
2018-07-07T01:20:31.761Z,56.52
2018-07-07T01:22:59.549Z,57.79
2018-07-07T01:25:26.197Z,56.58
2018-07-07T01:27:52.848Z,58.06
2018-07-07T01:30:19.493Z,57.48
2018-07-07T01:32:46.169Z,57.17
2018-07-07T01:35:12.801Z,56.77
2018-07-07T01:37:39.481Z,56.11
2018-07-07T01:40:06.128Z,57.58
2018-07-07T01:42:33.837Z,57.65
2018-07-07T01:45:00.469Z,56.35
2018-07-07T01:47:28.168Z,56.74
2018-07-07T01:49:54.804Z,57.59
2018-07-07T01:52:21.437Z,57.11
2018-07-07T01:54:48.088Z,56.83
2018-07-07T01:57:14.724Z,57.33
2018-07-07T01:59:41.365Z,57.95
2018-07-07T02:02:08.005Z,56.43
2018-07-07T02:04:34.652Z,56.61
2018-07-07T02:07:01.365Z,58.10
2018-07-07T02:09:28.686Z,57.31
2018-07-07T02:11:55.308Z,56.75
2018-07-07T02:14:21.961Z,57.23
2018-07-07T02:16:48.625Z,57.26
2018-07-07T02:19:15.285Z,58.06
2018-07-07T02:21:41.934Z,57.35
2018-07-07T02:24:08.585Z,58.80
2018-07-07T02:26:35.244Z,58.75
2018-07-07T02:29:01.889Z,58.72
2018-07-07T02:31:29.745Z,59.54
2018-07-07T02:33:56.383Z,58.44
2018-07-07T02:36:23.033Z,57.16
2018-07-07T02:38:49.681Z,58.27
2018-07-07T02:41:16.325Z,57.88
2018-07-07T02:43:42.958Z,57.32
2018-07-07T02:46:09.665Z,58.37
2018-07-07T02:48:36.280Z,57.45
2018-07-07T02:51:04.374Z,58.63
2018-07-07T02:53:31.022Z,58.44
2018-07-07T02:55:58.993Z,58.16
2018-07-07T02:58:25.669Z,58.06
2018-07-07T03:00:52.329Z,58.58
2018-07-07T03:03:19.033Z,58.28
2018-07-07T03:05:45.694Z,59.14
2018-07-07T03:08:12.335Z,58.32
2018-07-07T03:10:38.976Z,59.18
2018-07-07T03:13:05.616Z,58.33
2018-07-07T03:15:32.264Z,58.20
2018-07-07T03:17:59.010Z,59.41
2018-07-07T03:20:25.692Z,57.43
2018-07-07T03:22:52.333Z,58.35
2018-07-07T03:25:18.987Z,59.32
2018-07-07T03:27:45.641Z,58.17
2018-07-07T03:30:12.290Z,58.60
2018-07-07T03:32:39.424Z,59.43
2018-07-07T03:35:06.072Z,59.20
2018-07-07T03:37:33.818Z,58.07
2018-07-07T03:40:00.462Z,58.69
2018-07-07T03:42:27.100Z,57.88
2018-07-07T03:44:53.893Z,58.63
2018-07-07T03:47:20.538Z,59.24
2018-07-07T03:49:47.201Z,58.65
2018-07-07T03:52:13.953Z,57.84
2018-07-07T03:54:40.625Z,58.93
2018-07-07T03:57:07.268Z,57.70
2018-07-07T03:59:34.669Z,58.11
2018-07-07T04:02:01.344Z,57.93
2018-07-07T04:04:29.116Z,57.99
2018-07-07T04:06:55.775Z,58.47
2018-07-07T04:09:22.447Z,57.98
2018-07-07T04:11:49.086Z,57.35
2018-07-07T04:14:15.757Z,57.78
2018-07-07T04:16:42.400Z,57.38
2018-07-07T04:19:09.053Z,58.34
2018-07-07T04:21:35.704Z,58.03
2018-07-07T04:24:03.301Z,57.82
2018-07-07T04:26:29.945Z,57.53
2018-07-07T04:28:56.589Z,58.91
2018-07-07T04:31:23.229Z,57.60
2018-07-07T04:33:49.885Z,57.94
2018-07-07T04:36:16.554Z,58.05
2018-07-07T04:38:43.198Z,57.66
2018-07-07T04:41:09.851Z,57.68
2018-07-07T04:43:36.517Z,58.38
2018-07-07T04:46:04.193Z,57.44
2018-07-07T04:48:30.864Z,58.17
2018-07-07T04:50:58.681Z,57.60
2018-07-07T04:53:25.316Z,57.57
2018-07-07T04:55:51.961Z,57.40
2018-07-07T04:58:18.597Z,57.08
2018-07-07T05:00:45.233Z,57.65
2018-07-07T05:03:11.937Z,56.86
2018-07-07T05:05:38.601Z,57.82
2018-07-07T05:08:05.261Z,56.99
2018-07-07T05:10:31.937Z,56.98
2018-07-07T05:12:59.481Z,57.39
2018-07-07T05:15:26.207Z,57.69
2018-07-07T05:17:52.836Z,57.15
2018-07-07T05:20:19.500Z,57.00
2018-07-07T05:22:46.197Z,57.43
2018-07-07T05:25:12.920Z,57.35
2018-07-07T05:27:39.581Z,57.28
2018-07-07T05:30:06.242Z,57.39
2018-07-07T05:32:34.257Z,57.74
2018-07-07T05:35:00.910Z,57.50
2018-07-07T05:37:27.671Z,56.63
2018-07-07T05:39:54.336Z,56.39
2018-07-07T05:42:20.984Z,56.91
2018-07-07T05:44:47.736Z,56.87
2018-07-07T05:47:14.381Z,56.45
2018-07-07T05:49:41.012Z,56.80
2018-07-07T05:52:07.665Z,57.43
2018-07-07T05:54:35.656Z,57.04
2018-07-07T05:57:05.069Z,57.77
2018-07-07T05:59:31.745Z,57.62
2018-07-07T06:02:01.822Z,58.08
2018-07-07T06:04:29.540Z,57.42
2018-07-07T06:06:56.344Z,56.93
2018-07-07T06:09:23.008Z,57.84
2018-07-07T06:11:49.667Z,57.30
2018-07-07T06:14:16.314Z,57.31
2018-07-07T06:16:42.997Z,56.68
2018-07-07T06:19:09.788Z,57.59
2018-07-07T06:21:36.478Z,57.49
2018-07-07T06:24:04.199Z,57.58
2018-07-07T06:26:30.875Z,56.25
2018-07-07T06:28:58.664Z,56.90
2018-07-07T06:31:25.324Z,56.93
2018-07-07T06:33:51.986Z,55.93
2018-07-07T06:36:18.652Z,56.36
2018-07-07T06:38:45.349Z,57.94
2018-07-07T06:41:12.044Z,58.02
2018-07-07T06:43:38.734Z,57.54
2018-07-07T06:46:05.421Z,57.52
2018-07-07T06:48:32.156Z,57.61
2018-07-07T06:50:59.534Z,57.37
2018-07-07T06:53:26.183Z,57.38
2018-07-07T06:55:52.853Z,58.20
2018-07-07T06:58:19.513Z,58.19
2018-07-07T07:00:46.198Z,58.18
2018-07-07T07:03:12.852Z,58.42
2018-07-07T07:05:39.513Z,57.64
2018-07-07T07:08:06.168Z,57.99
2018-07-07T07:10:34.248Z,58.59
2018-07-07T07:13:00.902Z,58.40
2018-07-07T07:15:28.617Z,58.61
2018-07-07T07:17:55.368Z,58.73
2018-07-07T07:20:22.017Z,58.72
2018-07-07T07:22:48.649Z,58.71
2018-07-07T07:25:15.370Z,58.88
2018-07-07T07:27:42.032Z,58.95
2018-07-07T07:30:09.316Z,58.88
2018-07-07T07:32:35.964Z,58.65
2018-07-07T07:35:03.729Z,58.97
2018-07-07T07:37:30.372Z,58.17
2018-07-07T07:39:57.092Z,58.99
2018-07-07T07:42:24.110Z,58.26
2018-07-07T07:44:51.900Z,58.48
2018-07-07T07:47:18.553Z,59.16
2018-07-07T07:49:45.195Z,58.40
2018-07-07T07:52:11.852Z,58.41
2018-07-07T07:54:38.512Z,59.01
2018-07-07T07:57:05.157Z,59.17
2018-07-07T07:59:31.796Z,58.30
2018-07-07T08:01:59.185Z,59.21
2018-07-07T08:04:25.828Z,59.19
2018-07-07T08:06:52.778Z,59.10
2018-07-07T08:09:19.425Z,58.55
2018-07-07T08:11:46.065Z,58.44
2018-07-07T08:14:12.736Z,58.56
2018-07-07T08:16:39.385Z,58.57
2018-07-07T08:19:06.036Z,58.43
2018-07-07T08:21:33.352Z,59.09
2018-07-07T08:23:59.996Z,59.28
2018-07-07T08:26:26.641Z,58.46
2018-07-07T08:28:53.302Z,58.57
2018-07-07T08:31:19.964Z,59.57
2018-07-07T08:33:46.608Z,59.33
2018-07-07T08:36:13.241Z,58.65
2018-07-07T08:38:39.897Z,59.10
2018-07-07T08:41:06.550Z,59.45
2018-07-07T08:43:34.509Z,58.56
2018-07-07T08:46:01.154Z,59.25
2018-07-07T08:48:28.653Z,58.69
2018-07-07T08:50:55.292Z,59.30
2018-07-07T08:53:21.965Z,59.40
2018-07-07T08:55:49.453Z,59.50
2018-07-07T08:58:16.108Z,58.79
2018-07-07T09:00:42.760Z,59.50
2018-07-07T09:03:09.461Z,59.09
2018-07-07T09:05:36.100Z,59.27
2018-07-07T09:08:04.652Z,58.67
2018-07-07T09:10:31.602Z,58.80
2018-07-07T09:12:59.284Z,58.79
2018-07-07T09:15:29.210Z,58.59
2018-07-07T09:17:58.345Z,59.45
2018-07-07T09:20:25.298Z,59.30
2018-07-07T09:22:52.903Z,58.88
2018-07-07T09:25:19.648Z,59.31
2018-07-07T09:27:46.306Z,59.26
2018-07-07T09:30:12.973Z,59.62
2018-07-07T09:32:39.645Z,59.51
2018-07-07T09:35:06.339Z,59.35
2018-07-07T09:37:33.985Z,58.90
2018-07-07T09:40:00.638Z,59.59
2018-07-07T09:42:27.284Z,59.53
2018-07-07T09:44:53.923Z,59.75
2018-07-07T09:47:20.600Z,59.64
2018-07-07T09:49:47.251Z,59.53
2018-07-07T09:52:13.921Z,58.88
2018-07-07T09:54:40.576Z,59.23
2018-07-07T09:57:07.225Z,58.78
2018-07-07T09:59:34.604Z,59.46
2018-07-07T10:02:01.454Z,59.76
2018-07-07T10:04:28.728Z,58.80
2018-07-07T10:06:55.379Z,59.06
2018-07-07T10:09:22.042Z,59.48
2018-07-07T10:11:48.805Z,59.38
2018-07-07T10:14:15.478Z,59.71
2018-07-07T10:16:42.253Z,59.03
2018-07-07T10:19:08.939Z,59.61
2018-07-07T10:21:35.667Z,59.53
2018-07-07T10:24:02.328Z,58.96
2018-07-07T10:26:30.309Z,58.97
2018-07-07T10:28:56.997Z,58.96
2018-07-07T10:31:23.693Z,59.65
2018-07-07T10:33:50.365Z,59.29
2018-07-07T10:36:17.026Z,59.97
2018-07-07T10:38:43.789Z,59.80
2018-07-07T10:41:10.441Z,59.83
2018-07-07T10:43:37.087Z,59.82
2018-07-07T10:46:05.086Z,58.92
2018-07-07T10:48:31.745Z,59.86
2018-07-07T10:50:59.544Z,58.97
2018-07-07T10:53:26.373Z,59.18
2018-07-07T10:55:53.027Z,58.97
2018-07-07T10:58:19.690Z,58.75
2018-07-07T11:00:46.340Z,59.84
2018-07-07T11:03:12.992Z,59.34
2018-07-07T11:05:39.641Z,59.71
2018-07-07T11:08:06.657Z,59.84
2018-07-07T11:10:34.439Z,58.68
2018-07-07T11:13:01.122Z,59.86
2018-07-07T11:15:28.842Z,58.44
2018-07-07T11:17:55.685Z,59.34
2018-07-07T11:20:22.358Z,59.91
2018-07-07T11:22:49.208Z,58.99
2018-07-07T11:25:15.854Z,59.36
2018-07-07T11:27:42.505Z,59.87
2018-07-07T11:30:09.140Z,59.71
2018-07-07T11:32:35.812Z,58.71
2018-07-07T11:35:03.542Z,59.01
2018-07-07T11:37:30.285Z,59.34
2018-07-07T11:39:57.126Z,59.70
2018-07-07T11:42:23.883Z,59.17
2018-07-07T11:44:50.501Z,58.78
2018-07-07T11:47:17.168Z,58.75
2018-07-07T11:49:43.840Z,59.42
2018-07-07T11:52:10.686Z,59.47
2018-07-07T11:54:38.416Z,58.69
2018-07-07T11:57:05.108Z,59.18
2018-07-07T11:59:31.753Z,59.16
2018-07-07T12:01:59.509Z,58.59
2018-07-07T12:04:26.396Z,59.47
2018-07-07T12:06:53.094Z,59.05
2018-07-07T12:09:19.739Z,57.90
2018-07-07T12:11:46.405Z,57.06
2018-07-07T12:14:13.052Z,55.94
2018-07-07T12:16:39.704Z,55.65
2018-07-07T12:19:06.376Z,55.92
2018-07-07T12:21:34.117Z,55.98
2018-07-07T12:24:00.766Z,55.06
2018-07-07T12:26:27.453Z,54.85
2018-07-07T12:28:54.118Z,55.45
2018-07-07T12:31:20.778Z,55.57
2018-07-07T12:33:47.459Z,54.67
2018-07-07T12:36:14.121Z,55.20
2018-07-07T12:38:40.798Z,55.71
2018-07-07T12:41:07.465Z,55.79
2018-07-07T12:43:34.198Z,55.78
2018-07-07T12:46:00.917Z,55.86
2018-07-07T12:48:28.239Z,56.13
2018-07-07T12:50:55.046Z,55.38
2018-07-07T12:53:21.856Z,55.77
2018-07-07T12:55:48.537Z,55.62
2018-07-07T12:58:15.177Z,56.24
2018-07-07T13:00:41.850Z,56.31
2018-07-07T13:03:08.505Z,56.56
2018-07-07T13:05:35.182Z,55.78
2018-07-07T13:08:01.849Z,56.37
2018-07-07T13:10:28.569Z,56.83
2018-07-07T13:12:55.228Z,55.84
2018-07-07T13:15:21.898Z,56.70
2018-07-07T13:17:48.564Z,56.67
2018-07-07T13:20:15.237Z,56.04
2018-07-07T13:22:41.905Z,56.98
2018-07-07T13:25:08.577Z,56.40
2018-07-07T13:27:35.228Z,55.81
2018-07-07T13:30:01.873Z,56.88
2018-07-07T13:32:28.524Z,56.23
2018-07-07T13:34:55.174Z,56.67
2018-07-07T13:37:21.845Z,56.12
2018-07-07T13:39:48.494Z,56.45
2018-07-07T13:42:15.149Z,56.39
2018-07-07T13:44:41.850Z,57.31
2018-07-07T13:47:08.860Z,56.44
2018-07-07T13:49:35.921Z,56.42
2018-07-07T13:52:03.710Z,57.30
2018-07-07T13:54:30.368Z,56.59
2018-07-07T13:56:57.043Z,56.65
2018-07-07T13:59:23.702Z,56.50
2018-07-07T14:01:50.365Z,57.02
2018-07-07T14:04:17.050Z,57.48
2018-07-07T14:06:43.729Z,56.39
2018-07-07T14:09:10.422Z,56.72
2018-07-07T14:11:37.114Z,56.78
2018-07-07T14:14:05.054Z,56.78
2018-07-07T14:16:31.762Z,56.78
2018-07-07T14:18:59.606Z,57.51
2018-07-07T14:21:26.274Z,57.73
2018-07-07T14:23:52.949Z,56.87
2018-07-07T14:26:19.658Z,56.69
2018-07-07T14:28:46.321Z,56.83
2018-07-07T14:31:12.989Z,56.84
2018-07-07T14:33:39.637Z,57.75
2018-07-07T14:36:06.309Z,56.83
2018-07-07T14:38:35.321Z,56.92
2018-07-07T14:41:07.645Z,57.39
2018-07-07T14:43:40.045Z,57.92
2018-07-07T14:46:06.837Z,56.92
2018-07-07T14:48:34.433Z,57.70
2018-07-07T14:51:01.094Z,56.49
2018-07-07T14:53:29.170Z,58.07
2018-07-07T14:55:55.841Z,58.03
2018-07-07T14:58:22.538Z,57.52
2018-07-07T15:00:49.242Z,58.00
2018-07-07T15:03:15.924Z,56.86
2018-07-07T15:05:42.600Z,57.14
2018-07-07T15:08:09.445Z,56.82
2018-07-07T15:10:36.116Z,57.43
2018-07-07T15:13:03.909Z,57.21
2018-07-07T15:15:30.571Z,57.19
2018-07-07T15:17:57.284Z,57.60
2018-07-07T15:20:23.984Z,57.05
2018-07-07T15:22:50.674Z,57.96
2018-07-07T15:25:17.348Z,57.42
2018-07-07T15:27:44.016Z,57.58
2018-07-07T15:30:10.769Z,58.12
2018-07-07T15:32:37.613Z,57.18
2018-07-07T15:35:04.333Z,57.39
2018-07-07T15:37:31.069Z,57.20
2018-07-07T15:39:58.340Z,56.83
2018-07-07T15:42:25.005Z,56.87
2018-07-07T15:44:51.701Z,57.17
2018-07-07T15:47:19.269Z,57.28
2018-07-07T15:49:45.961Z,57.75
2018-07-07T15:52:12.609Z,57.87
2018-07-07T15:54:39.432Z,57.20
2018-07-07T15:57:06.096Z,58.29
2018-07-07T15:59:33.951Z,58.09
2018-07-07T16:02:00.605Z,57.49
2018-07-07T16:04:27.348Z,57.25
2018-07-07T16:06:54.005Z,57.91
2018-07-07T16:09:20.665Z,58.05
2018-07-07T16:11:47.356Z,58.08
2018-07-07T16:14:14.025Z,57.07
2018-07-07T16:16:40.694Z,57.43
2018-07-07T16:19:07.357Z,57.68
2018-07-07T16:21:35.445Z,57.77
2018-07-07T16:24:02.096Z,58.39
2018-07-07T16:26:29.444Z,57.58
2018-07-07T16:28:56.109Z,57.98
2018-07-07T16:31:22.784Z,57.54
2018-07-07T16:33:49.456Z,57.63
2018-07-07T16:36:16.145Z,57.92
2018-07-07T16:38:43.721Z,57.32
2018-07-07T16:41:10.386Z,58.52
2018-07-07T16:43:37.088Z,57.99
2018-07-07T16:46:04.291Z,57.35
2018-07-07T16:48:30.978Z,58.34
2018-07-07T16:50:57.656Z,58.57
2018-07-07T16:53:24.978Z,58.37
2018-07-07T16:55:51.708Z,57.75
2018-07-07T16:58:18.416Z,57.74
2018-07-07T17:00:45.333Z,58.50
2018-07-07T17:03:13.115Z,58.04
2018-07-07T17:05:39.813Z,57.62
2018-07-07T17:08:06.474Z,57.92
2018-07-07T17:10:34.305Z,58.21
2018-07-07T17:13:00.981Z,58.68
2018-07-07T17:15:29.029Z,58.55
2018-07-07T17:17:55.725Z,58.30
2018-07-07T17:20:22.411Z,58.22
2018-07-07T17:22:49.820Z,58.31
2018-07-07T17:25:16.497Z,58.08
2018-07-07T17:27:43.641Z,57.82
2018-07-07T17:30:10.343Z,58.36
2018-07-07T17:32:37.069Z,57.93
2018-07-07T17:35:04.852Z,58.46
2018-07-07T17:37:31.513Z,58.10
2018-07-07T17:39:59.000Z,57.97
2018-07-07T17:42:25.747Z,58.68
2018-07-07T17:44:53.490Z,58.75
2018-07-07T17:47:20.373Z,58.13
2018-07-07T17:49:47.310Z,58.91
2018-07-07T17:52:14.221Z,57.93
2018-07-07T17:54:40.868Z,58.38
2018-07-07T17:57:07.526Z,59.10
2018-07-07T17:59:34.713Z,58.82
2018-07-07T18:02:01.413Z,59.27
2018-07-07T18:04:28.153Z,57.69
2018-07-07T18:06:54.839Z,58.17
2018-07-07T18:09:21.522Z,58.52
2018-07-07T18:11:48.200Z,59.13
2018-07-07T18:14:14.897Z,58.66
2018-07-07T18:16:41.620Z,58.45
2018-07-07T18:19:08.387Z,58.46
2018-07-07T18:21:35.059Z,59.51
2018-07-07T18:24:01.817Z,58.85
2018-07-07T18:26:29.666Z,59.43
2018-07-07T18:28:56.338Z,58.93
2018-07-07T18:31:23.001Z,59.08
2018-07-07T18:33:49.764Z,58.82
2018-07-07T18:36:16.452Z,59.53
2018-07-07T18:38:43.217Z,58.89
2018-07-07T18:41:09.881Z,59.51
2018-07-07T18:43:36.560Z,58.85
2018-07-07T18:46:04.534Z,58.80
2018-07-07T18:48:31.188Z,58.84
2018-07-07T18:50:58.551Z,59.67
2018-07-07T18:53:25.265Z,59.03
2018-07-07T18:55:51.929Z,59.70
2018-07-07T18:58:18.575Z,59.01
2018-07-07T19:00:45.249Z,59.35
2018-07-07T19:03:11.933Z,58.96
2018-07-07T19:05:38.668Z,59.30
2018-07-07T19:08:05.356Z,60.18
2018-07-07T19:10:32.031Z,59.78
2018-07-07T19:12:59.286Z,59.75
2018-07-07T19:15:26.014Z,60.00
2018-07-07T19:17:58.773Z,59.14
2018-07-07T19:20:31.259Z,60.03
2018-07-07T19:23:04.026Z,59.60
2018-07-07T19:25:36.503Z,59.36
2018-07-07T19:28:04.729Z,60.25
2018-07-07T19:30:31.592Z,59.35
2018-07-07T19:33:05.499Z,59.33
2018-07-07T19:35:37.904Z,59.54
2018-07-07T19:38:04.621Z,60.17
2018-07-07T19:40:31.333Z,60.14
2018-07-07T19:43:00.949Z,59.68
2018-07-07T19:45:27.750Z,60.23
2018-07-07T19:47:55.113Z,59.30
2018-07-07T19:50:21.850Z,60.10
2018-07-07T19:52:50.356Z,59.34
2018-07-07T19:55:17.119Z,60.21
2018-07-07T19:57:43.800Z,59.24
2018-07-07T20:00:10.624Z,60.18
2018-07-07T20:02:37.344Z,60.18
2018-07-07T20:05:05.575Z,59.50
2018-07-07T20:07:32.322Z,59.84
2018-07-07T20:10:00.176Z,60.18
2018-07-07T20:12:27.145Z,59.93
2018-07-07T20:14:53.867Z,59.93
2018-07-07T20:17:26.260Z,59.54
2018-07-07T20:21:01.733Z,59.90
2018-07-07T20:23:29.208Z,61.26
2018-07-07T20:26:04.167Z,61.14
2018-07-07T20:28:36.516Z,60.39
2018-07-07T20:31:04.520Z,60.56
2018-07-07T20:33:31.292Z,60.62
2018-07-07T20:35:59.174Z,60.14
2018-07-07T20:38:25.874Z,59.64
2018-07-07T20:40:53.065Z,59.73
2018-07-07T20:43:19.961Z,60.50
2018-07-07T20:45:46.641Z,59.64
2018-07-07T20:48:13.473Z,60.12
2018-07-07T20:50:40.145Z,59.65
2018-07-07T20:53:06.829Z,60.44
2018-07-07T20:55:34.929Z,59.74
2018-07-07T20:58:01.589Z,59.91
2018-07-07T21:00:28.297Z,60.03
2018-07-07T21:02:54.980Z,59.79
2018-07-07T21:05:21.685Z,59.69
2018-07-07T21:07:48.357Z,59.69
2018-07-07T21:10:15.034Z,60.55
2018-07-07T21:12:41.711Z,60.09
2018-07-07T21:15:08.413Z,60.40
2018-07-07T21:17:35.157Z,60.35
2018-07-07T21:20:01.830Z,60.39
2018-07-07T21:22:29.662Z,60.01
2018-07-07T21:24:56.323Z,60.48
2018-07-07T21:27:22.978Z,60.41
2018-07-07T21:29:49.624Z,60.35
2018-07-07T21:32:16.289Z,60.54
2018-07-07T21:34:43.011Z,60.00
2018-07-07T21:37:09.660Z,59.60
2018-07-07T21:39:36.373Z,59.91
2018-07-07T21:42:04.065Z,59.68
2018-07-07T21:44:30.808Z,59.98
2018-07-07T21:46:57.699Z,59.77
2018-07-07T21:49:24.440Z,60.56
2018-07-07T21:51:51.137Z,59.90
2018-07-07T21:54:17.822Z,60.83
2018-07-07T21:56:44.512Z,59.97
2018-07-07T21:59:17.301Z,59.91
2018-07-07T22:01:55.058Z,60.81
2018-07-07T22:04:27.729Z,60.88
2018-07-07T22:07:00.099Z,60.94
2018-07-07T22:09:26.781Z,60.24
2018-07-07T22:11:53.547Z,60.84
2018-07-07T22:14:20.274Z,60.04
2018-07-07T22:16:46.993Z,60.81
2018-07-07T22:19:13.668Z,60.04
2018-07-07T22:21:46.121Z,60.76
2018-07-07T22:24:12.894Z,60.15
2018-07-07T22:26:39.689Z,60.52
2018-07-07T22:29:06.475Z,60.65
2018-07-07T22:31:34.216Z,59.86
2018-07-07T22:34:00.917Z,59.98
2018-07-07T22:36:33.877Z,60.79
2018-07-07T22:39:00.656Z,60.52
2018-07-07T22:41:34.107Z,60.76
2018-07-07T22:44:00.849Z,60.12
2018-07-07T22:46:27.529Z,59.95
2018-07-07T22:48:54.228Z,60.83
2018-07-07T22:51:20.927Z,60.81
2018-07-07T22:53:48.332Z,60.73
2018-07-07T22:56:15.058Z,59.84
2018-07-07T22:58:41.801Z,60.88
2018-07-07T23:01:08.677Z,60.05
2018-07-07T23:03:36.780Z,60.36
2018-07-07T23:06:04.801Z,60.19
2018-07-07T23:08:31.563Z,60.14
2018-07-07T23:10:59.453Z,60.23
2018-07-07T23:13:26.169Z,60.11
2018-07-07T23:15:52.829Z,60.49
2018-07-07T23:18:19.505Z,60.06
2018-07-07T23:20:46.197Z,60.98
2018-07-07T23:23:12.973Z,60.02
2018-07-07T23:25:39.737Z,60.92
2018-07-07T23:28:06.494Z,60.99
2018-07-07T23:30:34.253Z,60.46
2018-07-07T23:33:00.935Z,60.35
2018-07-07T23:35:27.609Z,60.65
2018-07-07T23:37:54.290Z,60.93
2018-07-07T23:40:20.994Z,60.34
2018-07-07T23:42:47.665Z,60.55
2018-07-07T23:45:14.355Z,61.17
2018-07-07T23:47:41.026Z,61.05
2018-07-07T23:50:08.761Z,61.17
2018-07-07T23:52:35.429Z,60.02
2018-07-07T23:55:02.250Z,60.88
2018-07-07T23:57:28.968Z,60.93
2018-07-07T23:59:56.077Z,60.58
